Lavista, Nebraska
Current Conditions -  °F | °C
As of 10:35 AM on Wednesday 26 Nov 2014 (Local Time) from KMLE Reporting Station
Overcast Overcast  
Wind Chill: 24°   Ceiling: 1400
Heat Index: 35°   Visibility: 10mi
Dew Point: 29°   Wind: 20mph
Humidity: 79%   Direction: 330°NNW
Pressure: 30.05"   Gusts: 29mph
Location:  41.166°N, 96.0444°W
Report Text: KMLE 261635Z AUTO 33017G25KT 10SM OVC014 02/M02 A3005 RMK AO2 T00151017
Loading
Personal Weather Stations






























Interactive Weather Map New forecast layout! Learn more

10-Day Weather Forecast

Advertisements
Track Severe Weather on mobile